Time;durP1;ratioP1;P1;durP2;ratioP2;P2;SDS_P1;SDS_P2;PMS_P1;PMS_P2;Temp;Humidity;BMP_temperature;BMP_pressure;BME280_temperature;BME280_humidity;BME280_pressure;Samples;Min_cycle;Max_cycle;Signal;HPM_P1;HPM_P2
2022/04/29 00:00:38;;;;;;;;;27.33;24.33;;;;;17.93;43.07;101924.97;4892709;29;44874;-85
2022/04/29 00:03:07;;;;;;;;;27.00;25.33;;;;;17.83;43.06;101911.47;4891902;29;44850;-85
2022/04/29 00:05:34;;;;;;;;;27.00;25.00;;;;;17.80;42.94;101915.97;4893203;29;44717;-85
2022/04/29 00:08:00;;;;;;;;;28.33;28.33;;;;;17.76;43.17;101905.19;4890488;29;48025;-87
2022/04/29 00:10:26;;;;;;;;;28.00;26.33;;;;;17.76;43.25;101913.25;4880579;29;45443;-86
2022/04/29 00:12:53;;;;;;;;;32.00;31.33;;;;;17.64;43.95;101907.84;4856271;29;45557;-86
2022/04/29 00:15:20;;;;;;;;;27.33;25.67;;;;;17.64;43.52;101895.28;4872812;29;45443;-86
2022/04/29 00:17:45;;;;;;;;;29.67;27.67;;;;;17.62;43.33;101891.69;4871642;29;45380;-86
2022/04/29 00:20:12;;;;;;;;;25.33;22.00;;;;;17.64;43.34;101900.66;4855736;29;45129;-86
2022/04/29 00:22:38;;;;;;;;;27.33;25.00;;;;;17.58;43.45;101895.25;4873119;29;45393;-86
2022/04/29 00:25:04;;;;;;;;;34.33;31.00;;;;;17.52;43.51;101893.44;4865551;29;45390;-86
2022/04/29 00:27:30;;;;;;;;;35.00;31.00;;;;;17.39;43.43;101884.44;4856480;29;47442;-87
2022/04/29 00:29:56;;;;;;;;;26.67;24.67;;;;;17.40;43.77;101875.47;4856387;29;45527;-87
2022/04/29 00:32:22;;;;;;;;;29.00;25.67;;;;;17.40;43.80;101891.59;4878150;29;44919;-86
2022/04/29 00:34:49;;;;;;;;;37.67;31.67;;;;;17.43;43.56;101884.44;4874303;29;45429;-86
2022/04/29 00:37:16;;;;;;;;;34.33;32.00;;;;;17.34;44.06;101890.69;4872503;29;45607;-86
2022/04/29 00:39:41;;;;;;;;;31.00;30.00;;;;;17.15;44.15;101870.88;4856524;29;45463;-86
2022/04/29 00:42:14;;;;;;;;;32.33;30.33;;;;;17.34;44.17;101886.19;4857405;29;44999;-85
2022/04/29 00:44:41;;;;;;;;;25.00;22.33;;;;;17.24;44.19;101887.03;4857638;29;44865;-85
2022/04/29 00:47:11;;;;;;;;;35.33;30.67;;;;;17.26;44.25;101887.94;4872314;29;48051;-84
2022/04/29 00:49:37;;;;;;;;;31.67;29.33;;;;;17.23;44.74;101885.25;4861565;29;45390;-86
2022/04/29 00:52:06;;;;;;;;;34.33;31.33;;;;;17.24;44.88;101872.72;4876151;29;45274;-86
2022/04/29 00:54:36;;;;;;;;;30.67;30.33;;;;;17.23;45.33;101873.59;4857137;29;45267;-86
2022/04/29 00:57:06;;;;;;;;;38.33;33.67;;;;;17.13;44.40;101867.28;4872412;29;46218;-86
2022/04/29 00:59:35;;;;;;;;;36.00;32.33;;;;;17.10;44.77;101873.53;4872140;29;45382;-85
2022/04/29 01:02:03;;;;;;;;;35.00;29.67;;;;;17.12;45.37;101871.75;4859822;29;45922;-85
2022/04/29 01:04:36;;;;;;;;;34.33;32.00;;;;;17.02;45.08;101855.56;4874885;29;45383;-85
2022/04/29 01:07:03;;;;;;;;;36.67;32.00;;;;;17.06;45.02;101862.75;4857795;29;47775;-85
2022/04/29 01:09:28;;;;;;;;;32.33;31.33;;;;;17.02;45.12;101851.09;4856869;29;44851;-86
2022/04/29 01:11:54;;;;;;;;;39.00;35.00;;;;;17.02;45.07;101855.56;4856071;29;45292;-86
2022/04/29 01:14:21;;;;;;;;;32.67;29.00;;;;;17.02;45.20;101860.94;4857645;29;45676;-86
2022/04/29 01:16:47;;;;;;;;;33.00;30.33;;;;;16.92;44.90;101843.88;4855675;29;48141;-85
2022/04/29 01:19:12;;;;;;;;;35.67;28.00;;;;;16.95;45.12;101849.28;4871880;29;45420;-86
2022/04/29 01:21:38;;;;;;;;;32.67;32.00;;;;;16.79;45.08;101824.97;4870997;29;44898;-86
2022/04/29 01:24:03;;;;;;;;;37.33;33.67;;;;;16.92;45.29;101844.75;4854916;29;44922;-85
2022/04/29 01:26:29;;;;;;;;;34.33;32.67;;;;;16.92;45.03;101854.63;4871160;29;45587;-85
2022/04/29 01:28:56;;;;;;;;;32.00;31.67;;;;;16.89;44.91;101842.06;4870295;29;44853;-86
2022/04/29 01:31:23;;;;;;;;;30.33;29.67;;;;;16.96;45.10;101862.69;4854116;29;45745;-86
2022/04/29 01:33:50;;;;;;;;;32.00;31.67;;;;;16.68;45.41;101817.72;4854092;29;45600;-85
2022/04/29 01:36:16;;;;;;;;;32.00;29.67;;;;;16.79;45.28;101832.13;4852912;29;46974;-85
2022/04/29 01:38:42;;;;;;;;;37.33;30.33;;;;;16.86;45.20;101852.78;4843495;29;46564;-86
2022/04/29 01:41:08;;;;;;;;;34.00;31.00;;;;;16.84;44.96;101854.56;4834283;29;45448;-85
2022/04/29 01:43:35;;;;;;;;;36.67;32.67;;;;;16.87;45.69;101861.78;4851577;29;45809;-86
2022/04/29 01:46:01;;;;;;;;;35.33;32.33;;;;;16.80;45.74;101855.41;4834713;29;47884;-86
2022/04/29 01:48:28;;;;;;;;;33.33;29.67;;;;;16.56;45.82;101824.84;4835311;29;45387;-85
2022/04/29 01:50:54;;;;;;;;;35.00;33.67;;;;;16.65;45.49;101845.47;4852544;29;45564;-85
2022/04/29 01:53:19;;;;;;;;;35.67;34.00;;;;;16.71;45.59;101852.69;4835942;29;45425;-86
2022/04/29 01:55:45;;;;;;;;;39.67;34.00;;;;;16.71;45.64;101863.44;4851628;29;45689;-85
2022/04/29 01:58:13;;;;;;;;;36.33;33.33;;;;;16.76;45.73;101856.28;4852154;29;45342;-86
2022/04/29 02:00:39;;;;;;;;;35.33;31.33;;;;;16.64;45.53;101856.19;4837038;29;44906;-86
2022/04/29 02:03:04;;;;;;;;;32.67;30.67;;;;;16.57;45.80;101852.59;4834641;29;45510;-86
2022/04/29 02:05:30;;;;;;;;;42.00;34.33;;;;;16.62;45.95;101845.44;4833842;29;47245;-86
2022/04/29 02:07:57;;;;;;;;;31.00;30.00;;;;;16.53;45.73;101832.84;4834492;29;45579;-85
2022/04/29 02:10:24;;;;;;;;;38.00;32.33;;;;;16.67;45.84;101854.44;4842515;29;44884;-85
2022/04/29 02:12:49;;;;;;;;;36.67;33.00;;;;;16.66;45.95;101854.41;4852816;29;45381;-86
2022/04/29 02:15:17;;;;;;;;;30.67;28.67;;;;;16.73;46.06;101853.59;4854461;29;47153;-86
2022/04/29 02:17:43;;;;;;;;;35.33;31.67;;;;;16.72;45.86;101862.53;4853646;29;44856;-85
2022/04/29 02:20:08;;;;;;;;;33.67;32.00;;;;;16.73;46.32;101862.53;4871428;29;45382;-86
2022/04/29 02:22:39;;;;;;;;;39.00;33.67;;;;;16.84;45.74;101870.69;4872590;29;45441;-86
2022/04/29 02:25:05;;;;;;;;;35.33;32.00;;;;;16.72;45.69;101867.88;4854764;29;47377;-85
2022/04/29 02:27:30;;;;;;;;;36.00;34.00;;;;;16.66;45.66;101857.09;4856097;29;45909;-85
2022/04/29 02:29:56;;;;;;;;;40.00;32.00;;;;;16.65;45.71;101866.06;4870557;29;45537;-85
2022/04/29 02:32:21;;;;;;;;;35.67;31.33;;;;;16.62;45.66;101874.09;4853609;29;45685;-85
2022/04/29 02:34:47;;;;;;;;;36.00;30.67;;;;;16.62;45.30;101866.03;4852931;29;48681;-85
2022/04/29 02:37:12;;;;;;;;;37.33;32.00;;;;;16.57;46.17;101861.53;4869234;29;45505;-86
2022/04/29 02:39:38;;;;;;;;;34.00;31.67;;;;;16.64;46.01;101858.88;4868897;29;45617;-86
2022/04/29 02:42:04;;;;;;;;;38.00;32.33;;;;;16.57;46.32;101849.91;4888675;29;45363;-86
2022/04/29 02:44:29;;;;;;;;;38.00;33.67;;;;;16.68;46.26;101855.34;4888376;29;47557;-85
2022/04/29 02:47:07;;;;;;;;;34.33;32.00;;;;;16.65;46.66;101860.69;4872269;29;45448;-86
2022/04/29 02:49:33;;;;;;;;;32.00;31.00;;;;;16.63;46.41;101857.09;4891676;29;45765;-86
2022/04/29 02:51:58;;;;;;;;;34.33;30.00;;;;;16.52;46.80;101860.63;4876267;29;45439;-87
2022/04/29 02:54:25;;;;;;;;;33.00;32.00;;;;;16.64;47.30;101862.47;4892800;29;45226;-86
2022/04/29 02:56:51;;;;;;;;;37.67;33.00;;;;;16.55;47.00;101857.94;4873767;29;44770;-86
2022/04/29 02:59:18;;;;;;;;;37.00;34.00;;;;;16.55;47.21;101859.72;4873118;29;44859;-85
2022/04/29 03:01:44;;;;;;;;;39.33;34.67;;;;;16.46;47.41;101865.94;4875291;29;45396;-85
2022/04/29 03:04:09;;;;;;;;;43.33;37.33;;;;;16.37;47.38;101866.75;4873168;29;46957;-86
2022/04/29 03:06:35;;;;;;;;;42.00;34.67;;;;;16.24;47.46;101863.94;4875234;29;45672;-85
2022/04/29 03:09:00;;;;;;;;;37.67;34.33;;;;;16.12;47.76;101864.75;4876406;29;45522;-85
2022/04/29 03:11:26;;;;;;;;;37.00;32.67;;;;;16.07;48.01;101850.38;4875024;29;44875;-84
2022/04/29 03:13:51;;;;;;;;;31.00;29.33;;;;;16.18;48.65;101860.31;4877182;29;45719;-86
2022/04/29 03:16:17;;;;;;;;;35.33;31.67;;;;;16.11;48.11;101845.03;4878343;29;45440;-85
2022/04/29 03:18:44;;;;;;;;;41.67;36.67;;;;;16.15;48.08;101844.19;4876283;29;45402;-85
2022/04/29 03:21:10;;;;;;;;;43.00;35.00;;;;;16.16;48.10;101854.03;4874679;29;45540;-84
2022/04/29 03:23:35;;;;;;;;;40.67;34.00;;;;;16.06;48.24;101853.94;4875464;29;47222;-85
2022/04/29 03:26:01;;;;;;;;;41.00;35.67;;;;;15.94;48.76;101841.31;4874452;29;45332;-86
2022/04/29 03:28:27;;;;;;;;;40.33;34.67;;;;;15.93;49.01;101844.88;4874938;29;44811;-85
2022/04/29 03:30:52;;;;;;;;;37.67;33.33;;;;;15.88;48.88;101833.22;4875571;29;45758;-85
2022/04/29 03:33:17;;;;;;;;;39.33;34.33;;;;;15.91;48.56;101838.59;4871236;29;45423;-86
2022/04/29 03:35:45;;;;;;;;;42.67;38.00;;;;;15.86;49.35;101835.00;4872446;29;45378;-86
2022/04/29 03:38:11;;;;;;;;;39.67;36.00;;;;;15.80;49.03;101835.81;4867099;29;45835;-86
2022/04/29 03:40:36;;;;;;;;;37.33;34.00;;;;;15.85;48.94;101823.34;4852735;29;45400;-85
2022/04/29 03:43:02;;;;;;;;;44.00;38.00;;;;;15.86;48.63;101811.75;4836639;29;47052;-84
2022/04/29 03:45:29;;;;;;;;;46.33;35.00;;;;;15.98;48.89;101819.00;4837167;29;45217;-85
2022/04/29 03:47:55;;;;;;;;;40.67;34.67;;;;;15.89;48.71;101803.69;4837628;29;45498;-86
2022/04/29 03:50:23;;;;;;;;;42.67;36.00;;;;;16.07;48.84;101813.69;4837576;29;45508;-85
2022/04/29 03:52:53;;;;;;;;;39.00;31.33;;;;;16.13;48.67;101813.75;4837964;29;46763;-85
2022/04/29 03:55:21;;;;;;;;;39.33;33.00;;;;;16.07;48.74;101810.13;4855388;29;45444;-85
2022/04/29 03:57:47;;;;;;;;;46.00;34.67;;;;;16.10;48.80;101818.22;4837756;29;45447;-85
2022/04/29 04:00:13;;;;;;;;;36.00;33.33;;;;;15.98;48.75;101794.84;4838976;29;45377;-85
2022/04/29 04:03:32;;;;;;;;;36.00;31.67;;;;;16.25;48.29;101812.06;4845752;29;47064;-86
2022/04/29 04:08:41;;;;;;;;;44.33;37.33;;;;;16.08;48.54;101818.19;4874705;29;45410;-85
2022/04/29 04:11:07;;;;;;;;;45.33;36.00;;;;;16.07;48.72;101816.38;4874052;29;45464;-86
2022/04/29 04:13:32;;;;;;;;;47.00;37.67;;;;;16.06;48.65;101811.91;4856296;29;47134;-84
2022/04/29 04:15:58;;;;;;;;;38.67;33.33;;;;;16.03;48.50;101817.25;4874701;29;45486;-85
2022/04/29 04:18:23;;;;;;;;;42.00;35.00;;;;;15.96;49.02;101818.09;4874469;29;45177;-85
2022/04/29 04:24:11;;;;;;;;;45.00;37.67;;;;;15.92;48.50;101818.94;4873265;29;46010;-85
2022/04/29 04:26:36;;;;;;;;;35.00;33.00;;;;;15.85;48.94;101814.41;4855639;29;45504;-85
2022/04/29 04:29:02;;;;;;;;;42.67;34.33;;;;;15.87;49.09;101807.25;4840574;29;45321;-86
2022/04/29 04:31:27;;;;;;;;;38.33;34.33;;;;;15.89;49.08;101809.06;4854184;29;45320;-85
2022/04/29 04:33:53;;;;;;;;;37.67;32.00;;;;;15.99;48.80;101812.75;4855047;29;46804;-85
2022/04/29 04:36:19;;;;;;;;;40.00;34.00;;;;;15.95;48.58;101813.59;4873357;29;45575;-86
2022/04/29 04:38:45;;;;;;;;;38.00;33.33;;;;;15.92;48.72;101822.53;4860568;29;45494;-86
2022/04/29 04:41:17;;;;;;;;;42.67;35.33;;;;;15.90;48.00;101821.63;4890777;29;45594;-86
2022/04/29 04:43:45;;;;;;;;;38.33;34.00;;;;;15.79;48.02;101801.81;4874074;29;47534;-86
2022/04/29 04:46:12;;;;;;;;;37.00;33.67;;;;;15.84;47.89;101816.19;4874214;29;45483;-86
2022/04/29 04:48:38;;;;;;;;;35.00;32.00;;;;;15.84;47.60;101817.97;4890899;29;45785;-86
2022/04/29 04:51:09;;;;;;;;;33.33;31.67;;;;;15.80;48.02;101798.28;4891400;29;45829;-86
2022/04/29 04:53:35;;;;;;;;;37.00;31.67;;;;;15.70;47.72;101799.91;4892183;29;45418;-87
2022/04/29 04:56:01;;;;;;;;;40.33;32.67;;;;;15.71;47.39;101793.66;4890896;29;45467;-86
2022/04/29 04:58:26;;;;;;;;;43.33;35.00;;;;;15.66;47.76;101792.72;4891181;29;45446;-86
2022/04/29 05:00:52;;;;;;;;;34.67;32.00;;;;;15.88;47.45;101822.50;4892452;29;44906;-86
2022/04/29 05:03:17;;;;;;;;;36.33;33.33;;;;;15.82;47.16;101811.69;4890865;29;47387;-86
2022/04/29 05:05:42;;;;;;;;;31.67;31.00;;;;;15.88;47.75;101822.50;4893159;29;45528;-85
2022/04/29 05:08:08;;;;;;;;;36.00;32.67;;;;;15.87;47.43;101823.34;4894586;28;45347;-86
2022/04/29 05:10:33;;;;;;;;;35.33;29.33;;;;;15.83;47.53;101819.75;4893489;29;45357;-85
2022/04/29 05:12:59;;;;;;;;;33.00;31.00;;;;;15.84;47.29;101815.28;4891153;29;47705;-84
2022/04/29 05:15:24;;;;;;;;;33.00;29.33;;;;;15.86;47.50;101824.25;4908120;29;45480;-85
2022/04/29 05:17:49;;;;;;;;;37.33;30.67;;;;;15.88;47.12;101827.84;4892005;29;45419;-85
2022/04/29 05:20:16;;;;;;;;;34.67;30.67;;;;;15.94;47.18;101834.16;4893043;29;44763;-87
2022/04/29 05:22:42;;;;;;;;;37.33;27.67;;;;;15.89;47.09;101830.53;4890412;29;46024;-86
2022/04/29 05:25:08;;;;;;;;;35.33;32.00;;;;;15.86;47.18;101825.16;4890280;29;45392;-86
2022/04/29 05:27:33;;;;;;;;;33.00;30.00;;;;;15.72;47.04;101829.44;4892567;29;44949;-85
2022/04/29 05:29:59;;;;;;;;;39.33;34.67;;;;;15.79;47.21;101840.28;4894901;29;45455;-86
2022/04/29 05:32:25;;;;;;;;;36.00;32.67;;;;;15.87;47.96;101842.13;4891367;29;45471;-86
2022/04/29 05:34:51;;;;;;;;;31.00;29.00;;;;;15.84;48.10;101836.75;4908595;29;45362;-86
2022/04/29 05:37:18;;;;;;;;;38.00;33.33;;;;;15.81;48.19;101837.59;4889325;29;45336;-86
2022/04/29 05:42:28;;;;;;;;;36.00;32.00;;;;;15.86;48.50;101845.72;4891072;29;45878;-86
2022/04/29 05:44:54;;;;;;;;;38.67;34.00;;;;;15.94;48.44;101849.38;4888476;29;45693;-87
2022/04/29 05:47:21;;;;;;;;;42.00;35.00;;;;;15.97;48.65;101838.66;4887305;29;45583;-85
2022/04/29 05:49:46;;;;;;;;;46.00;37.67;;;;;15.89;48.48;101837.69;4888996;29;45598;-85
2022/04/29 05:52:12;;;;;;;;;43.33;35.00;;;;;16.03;48.19;101853.91;4888537;29;47129;-86
2022/04/29 05:54:38;;;;;;;;;46.00;37.00;;;;;16.13;48.38;101867.44;4888426;29;45569;-86
2022/04/29 05:57:04;;;;;;;;;43.33;37.33;;;;;15.92;48.19;101827.00;4887769;29;44788;-86
2022/04/29 05:59:30;;;;;;;;;39.33;34.67;;;;;16.13;48.52;101859.38;4905457;29;45706;-85
2022/04/29 06:01:56;;;;;;;;;34.67;33.33;;;;;15.99;48.21;101836.88;4889731;29;45527;-84
2022/04/29 06:04:22;;;;;;;;;37.67;33.00;;;;;16.02;47.88;101855.72;4890510;29;45384;-86
2022/04/29 06:06:49;;;;;;;;;39.67;34.67;;;;;16.10;48.52;101867.41;4891328;28;45456;-85
2022/04/29 06:09:14;;;;;;;;;41.33;34.67;;;;;16.10;47.97;101864.72;4890977;29;44861;-86
2022/04/29 06:11:40;;;;;;;;;37.67;33.33;;;;;16.16;47.57;101872.84;4890347;29;45490;-86
2022/04/29 06:14:05;;;;;;;;;31.33;30.00;;;;;16.28;47.16;101887.22;4884121;29;44864;-86
2022/04/29 06:16:31;;;;;;;;;31.33;27.33;;;;;16.24;46.81;101880.03;4891451;29;45369;-86
2022/04/29 06:22:19;;;;;;;;;33.00;32.00;;;;;16.24;46.73;101880.03;4891265;29;45729;-85
2022/04/29 06:24:45;;;;;;;;;35.67;33.33;;;;;16.17;46.65;101877.31;4874712;29;45988;-86
2022/04/29 06:27:10;;;;;;;;;37.67;33.00;;;;;16.09;48.26;101881.69;4881577;29;45840;-85
2022/04/29 06:29:36;;;;;;;;;38.67;35.67;;;;;16.02;47.84;101895.97;4875880;29;45474;-86
2022/04/29 06:32:01;;;;;;;;;40.67;36.00;;;;;15.88;49.00;101894.94;4889022;29;47360;-85
2022/04/29 06:34:26;;;;;;;;;41.00;33.33;;;;;15.83;48.79;101884.13;4893558;29;44742;-87
2022/04/29 06:36:52;;;;;;;;;37.33;34.67;;;;;15.89;48.72;101881.50;4876023;29;45463;-87
2022/04/29 06:39:17;;;;;;;;;46.67;34.00;;;;;15.98;48.62;101883.41;4889728;29;45518;-86
2022/04/29 06:41:43;;;;;;;;;40.00;33.33;;;;;16.05;48.51;101874.50;4879286;29;47850;-87
2022/04/29 06:44:08;;;;;;;;;42.00;33.00;;;;;16.00;48.29;101866.41;4877299;29;45257;-86
2022/04/29 06:46:35;;;;;;;;;44.00;36.00;;;;;16.19;48.27;101875.53;4878276;29;44852;-85
2022/04/29 06:49:01;;;;;;;;;40.33;35.00;;;;;16.19;48.27;101872.84;4897238;29;45656;-85
2022/04/29 06:51:27;;;;;;;;;40.67;35.00;;;;;16.09;47.61;101846.81;4885996;29;46644;-87
2022/04/29 06:53:52;;;;;;;;;42.33;36.00;;;;;16.08;47.67;101854.84;4877034;29;45728;-86
2022/04/29 06:56:23;;;;;;;;;39.00;33.00;;;;;16.02;47.81;101847.66;4896144;29;44737;-85
2022/04/29 06:58:49;;;;;;;;;32.67;32.00;;;;;16.17;48.08;101904.16;4896546;29;45582;-86
2022/04/29 07:01:14;;;;;;;;;39.00;32.67;;;;;16.09;48.51;101894.22;4912338;29;45471;-86
2022/04/29 07:07:01;;;;;;;;;43.00;35.67;;;;;16.06;49.57;101904.91;4899143;29;45354;-87
2022/04/29 07:09:27;;;;;;;;;41.67;36.00;;;;;15.94;49.32;101887.81;4895361;29;45498;-86
2022/04/29 07:11:56;;;;;;;;;35.33;31.67;;;;;15.94;49.63;101900.34;4891174;29;46841;-86
2022/04/29 07:14:42;;;;;;;;;;;;;;;;;;;;;
2022/04/29 07:18:08;;;;;;;;;42.67;35.67;;;;;16.25;49.52;101914.97;4894746;29;67896;-87
2022/04/29 07:20:39;;;;;;;;;43.00;35.67;;;;;16.20;49.29;101912.25;4894885;29;44969;-86
2022/04/29 07:23:05;;;;;;;;;44.00;37.00;;;;;16.18;49.07;101899.69;4880152;29;47085;-86
2022/04/29 07:25:31;;;;;;;;;34.67;32.67;;;;;16.07;48.84;101861.13;4898964;29;45443;-88
2022/04/29 07:28:15;;;;;;;;;39.00;35.00;;;;;16.45;48.53;101892.78;4897290;28;45311;-88
2022/04/29 07:30:40;;;;;;;;;47.25;38.75;;;;;16.56;48.37;101910.78;4897787;29;45107;-88
2022/04/29 07:33:09;;;;;;;;;50.00;39.50;;;;;16.58;48.22;101890.19;4881738;28;45180;-86
2022/04/29 07:43:57;;;;;;;;;47.00;39.00;;;;;16.58;48.02;101887.50;4863080;29;45343;-87
2022/04/29 07:46:23;;;;;;;;;40.67;36.00;;;;;16.76;47.39;101901.94;4846211;29;45426;-85
2022/04/29 07:48:54;;;;;;;;;36.33;32.33;;;;;16.91;47.02;101911.97;4864290;29;44759;-86
2022/04/29 07:51:24;;;;;;;;;51.00;39.00;;;;;17.13;46.95;101913.88;4880654;29;45204;-87
2022/04/29 07:53:49;;;;;;;;;46.33;39.33;;;;;16.82;46.44;101850.97;4857273;29;47428;-86
2022/04/29 07:56:52;;;;;;;;;49.00;38.50;;;;;17.16;46.44;101913.88;4845203;29;45472;-87
2022/04/29 07:59:28;;;;;;;;;46.67;38.33;;;;;17.15;46.36;101921.97;4854713;29;44823;-87
2022/04/29 08:02:01;;;;;;;;;35.00;32.67;;;;;16.93;46.76;101867.19;4863148;29;45473;-90
2022/04/29 08:05:10;;;;;;;;;42.75;37.75;;;;;17.39;46.24;101921.16;4861458;29;46695;-87
2022/04/29 08:08:13;;;;;;;;;48.75;38.75;;;;;17.35;46.03;101897.84;4875065;29;45378;-88
2022/04/29 08:17:29;;;;;;;;;45.33;37.33;;;;;17.79;45.60;101879.19;4866126;29;45276;-87
2022/04/29 08:20:03;;;;;;;;;46.67;37.33;;;;;18.05;44.83;101886.44;4861335;29;45330;-88
2022/04/29 08:22:53;;;;;;;;;47.00;38.00;;;;;18.16;45.37;101900.81;4861064;29;45382;-87
2022/04/29 08:30:02;;;;;;;;;;;;;;;;;;;;;
2022/04/29 08:32:50;;;;;;;;;45.33;39.33;;;;;18.23;44.95;101865.81;4782012;29;45557;-87
2022/04/29 08:35:37;;;;;;;;;48.00;39.00;;;;;18.36;44.57;101871.22;4783495;29;45552;-87
2022/04/29 08:38:11;;;;;;;;;50.00;40.00;;;;;18.69;44.33;101908.91;4782223;29;45549;-87
2022/04/29 08:40:41;;;;;;;;;44.75;38.00;;;;;18.87;43.63;101913.44;4798121;29;45360;-87
2022/04/29 08:43:07;;;;;;;;;48.75;40.50;;;;;18.74;43.41;101905.31;4766005;29;44844;-87
2022/04/29 08:45:33;;;;;;;;;48.50;40.00;;;;;18.80;43.19;101899.03;4781435;29;45493;-87
2022/04/29 08:47:59;;;;;;;;;45.33;38.00;;;;;18.75;43.24;101884.66;4774875;29;45337;-87
2022/04/29 08:50:26;;;;;;;;;45.67;39.67;;;;;19.05;43.13;101925.97;4768601;29;45706;-87
2022/04/29 08:52:58;;;;;;;;;46.75;40.00;;;;;18.86;43.09;101880.16;4783689;29;45390;-86
2022/04/29 09:01:10;;;;;;;;;50.25;40.75;;;;;19.09;42.68;101885.50;4790789;29;45369;-86
2022/04/29 09:03:37;;;;;;;;;41.33;35.33;;;;;19.07;42.40;101891.81;4785233;29;44897;-86
2022/04/29 09:06:18;;;;;;;;;;;;;;;;;;;;;
2022/04/29 09:08:55;;;;;;;;;49.50;41.00;;;;;19.43;42.60;101911.44;4846362;29;65004;-87
2022/04/29 09:11:32;;;;;;;;;43.75;36.25;;;;;19.73;42.47;101899.66;4863724;29;46426;-87
2022/04/29 09:14:17;;;;;;;;;;;;;;;;;;;;;
2022/04/29 09:17:34;;;;;;;;;48.75;38.50;;;;;20.10;41.39;101886.84;4892003;29;67507;-86
2022/04/29 09:20:22;;;;;;;;;47.25;41.00;;;;;20.17;40.43;101888.56;4891631;29;44850;-86
2022/04/29 09:23:14;;;;;;;;;50.00;40.00;;;;;20.32;41.09;101905.56;4896783;29;47092;-86
2022/04/29 09:25:46;;;;;;;;;51.00;41.00;;;;;20.28;40.29;101903.78;4893454;29;44757;-87
2022/04/29 09:28:19;;;;;;;;;46.25;38.50;;;;;19.93;41.34;101854.53;4876866;29;44835;-87
2022/04/29 09:30:53;;;;;;;;;52.25;42.00;;;;;20.02;41.34;101869.78;4858802;29;44832;-88
2022/04/29 09:33:22;;;;;;;;;45.75;37.25;;;;;20.27;41.16;101858.78;4882234;29;45423;-86
2022/04/29 09:35:54;;;;;;;;;45.75;38.75;;;;;20.76;41.08;101907.03;4879559;29;44801;-86
2022/04/29 09:41:21;;;;;;;;;47.33;39.67;;;;;20.97;39.68;101868.94;4876689;29;44733;-86
2022/04/29 09:43:47;;;;;;;;;52.75;41.75;;;;;20.80;40.35;101843.91;4858223;29;46601;-86
2022/04/29 09:46:13;;;;;;;;;50.33;39.33;;;;;21.23;39.88;101894.81;4861573;29;45426;-87
2022/04/29 09:49:06;;;;;;;;;46.00;37.67;;;;;21.41;39.67;101876.53;4888676;29;45542;-87
2022/04/29 09:54:49;;;;;;;;;50.00;41.67;;;;;21.35;38.46;101839.66;5138928;23;46047;-85
2022/04/29 09:57:34;;;;;;;;;46.00;35.67;;;;;21.51;39.10;101879.16;4893086;29;45433;-85
2022/04/29 10:00:11;;;;;;;;;45.67;38.67;;;;;21.51;38.11;101879.16;4879759;29;45945;-85
2022/04/29 10:02:52;;;;;;;;;;;;;;;;;;;;;
2022/04/29 10:06:02;;;;;;;;;46.00;38.33;;;;;21.46;38.44;101883.72;4914881;28;74332;-85
2022/04/29 10:08:33;;;;;;;;;49.00;40.33;;;;;21.18;38.15;101837.16;4895979;29;45475;-86
2022/04/29 10:11:12;;;;;;;;;44.00;36.67;;;;;21.42;38.59;101854.00;4914252;29;45535;-84
2022/04/29 10:13:43;;;;;;;;;46.00;36.00;;;;;21.47;38.04;101858.47;4914491;29;45501;-86
2022/04/29 10:16:14;;;;;;;;;48.33;39.33;;;;;21.39;38.18;101841.41;4896095;29;45842;-85
2022/04/29 10:21:45;;;;;;;;;48.33;39.33;;;;;21.79;38.14;101892.31;4894125;29;44909;-87
2022/04/29 10:24:25;;;;;;;;;38.33;33.33;;;;;21.57;37.02;101842.97;4894523;29;45820;-85
2022/04/29 10:26:57;;;;;;;;;32.00;30.33;;;;;21.58;37.63;101839.38;4891763;29;47367;-86
2022/04/29 10:32:20;;;;;;;;;37.00;33.33;;;;;21.71;37.26;101857.25;4910078;29;45482;-86
2022/04/29 10:35:34;;;;;;;;;46.33;36.00;;;;;22.14;36.72;101877.34;4896460;29;45008;-85
2022/04/29 10:38:14;;;;;;;;;41.00;36.00;;;;;22.02;37.06;101858.59;4893247;29;48037;-84
2022/04/29 10:44:01;;;;;;;;;40.33;36.00;;;;;21.98;36.71;101871.28;4902343;29;45736;-87
2022/04/29 10:46:38;;;;;;;;;43.33;35.00;;;;;22.00;37.03;101863.13;4909136;29;44810;-85
2022/04/29 10:53:58;;;;;;;;;47.67;37.33;;;;;21.93;37.63;101870.44;4847992;29;45033;-85
2022/04/29 10:56:26;;;;;;;;;40.00;34.33;;;;;21.86;37.12;101857.94;4819258;29;45309;-86
2022/04/29 11:06:13;;;;;;;;;43.67;36.33;;;;;21.75;36.71;101877.94;4782518;29;44827;-87
2022/04/29 11:09:30;;;;;;;;;;;;;;;;;;;;;
2022/04/29 11:12:52;;;;;;;;;44.67;37.00;;;;;21.67;36.51;101866.31;4796041;29;45298;-90
2022/04/29 11:15:39;;;;;;;;;34.67;31.00;;;;;21.44;36.12;101857.63;4784911;29;45693;-84
2022/04/29 11:18:22;;;;;;;;;40.67;35.67;;;;;21.56;36.59;101870.97;4801771;29;45388;-85
2022/04/29 11:27:11;;;;;;;;;;;;;;;;;;;;;
2022/04/29 11:30:33;;;;;;;;;38.33;34.00;;;;;21.84;36.50;101863.34;4900480;29;71964;-85
2022/04/29 11:33:01;;;;;;;;;35.33;32.00;;;;;21.65;35.60;101835.63;4895418;29;45452;-84
2022/04/29 11:35:30;;;;;;;;;33.67;31.00;;;;;21.45;34.89;101821.50;4901632;29;45405;-84
2022/04/29 11:38:28;;;;;;;;;32.33;30.00;;;;;21.72;34.59;101861.72;4917434;29;45374;-85
2022/04/29 11:45:02;;;;;;;;;36.33;31.00;;;;;21.77;35.56;101839.97;4825164;29;44890;-87
2022/04/29 11:47:40;;;;;;;;;37.67;34.67;;;;;21.68;35.03;101830.19;4805833;29;45547;-84
2022/04/29 11:50:08;;;;;;;;;39.00;32.00;;;;;21.65;35.43;101829.34;4809615;29;45235;-82
2022/04/29 11:52:40;;;;;;;;;36.67;31.00;;;;;21.69;35.83;101853.66;4809081;29;45055;-83
2022/04/29 11:55:07;;;;;;;;;34.33;32.67;;;;;21.40;36.06;101845.88;4804143;29;45082;-83
2022/04/29 11:57:34;;;;;;;;;29.67;28.67;;;;;21.36;36.50;101839.63;4820275;29;45050;-85
2022/04/29 12:00:04;;;;;;;;;37.00;31.67;;;;;21.29;36.70;101823.47;4821552;29;45392;-83
2022/04/29 12:02:59;;;;;;;;;;;;;;;;;;;;;
2022/04/29 12:05:30;;;;;;;;;33.00;31.00;;;;;21.14;36.12;101794.81;4820960;29;68877;-84
2022/04/29 12:11:31;;;;;;;;;34.00;31.67;;;;;21.62;36.76;101846.53;4820091;29;45573;-86
2022/04/29 12:14:16;;;;;;;;;35.33;33.00;;;;;21.28;36.48;101806.34;4791183;29;44828;-85
2022/04/29 12:16:47;;;;;;;;;40.00;34.67;;;;;21.46;36.96;101839.53;4806875;29;45485;-84
2022/04/29 12:19:33;;;;;;;;;35.33;32.33;;;;;21.30;36.62;101801.81;4823492;29;45732;-84
2022/04/29 12:22:17;;;;;;;;;37.33;34.00;;;;;21.57;37.12;101851.09;4903490;29;46811;-84
2022/04/29 12:24:42;;;;;;;;;34.00;31.00;;;;;21.31;36.57;101809.03;4880945;29;45515;-85
2022/04/29 12:27:17;;;;;;;;;44.67;34.00;;;;;21.29;35.49;101815.34;4899142;29;45314;-84
2022/04/29 12:34:48;;;;;;;;;32.33;29.00;;;;;21.12;36.08;101793.94;4896036;29;45499;-85
2022/04/29 12:35:32;;;;;;;;;34.00;31.67;;;;;21.37;35.70;101833.31;5395898;23;46337;-86
2022/04/29 12:38:01;;;;;;;;;35.33;30.33;;;;;21.21;35.88;101793.84;4861926;29;44868;-85
2022/04/29 12:40:29;;;;;;;;;30.67;29.33;;;;;21.26;36.27;101802.78;4878772;29;44840;-84
2022/04/29 12:47:48;;;;;;;;;30.00;26.00;;;;;21.51;35.80;101821.41;4755097;29;45270;-85
2022/04/29 12:50:24;;;;;;;;;38.33;34.00;;;;;21.42;35.54;101826.94;4744004;30;45390;-85
2022/04/29 12:53:16;;;;;;;;;27.33;26.33;;;;;21.59;35.56;101819.47;4750197;30;44917;-85
2022/04/29 12:55:42;;;;;;;;;26.33;20.33;;;;;21.51;35.69;101816.00;4734736;30;45127;-85
2022/04/29 12:58:11;;;;;;;;;25.00;25.00;;;;;21.56;35.78;101798.78;4730390;30;45504;-80
2022/04/29 13:00:41;;;;;;;;;28.67;27.67;;;;;21.61;35.99;101787.88;4728737;30;45580;-80
2022/04/29 13:03:22;;;;;;;;;28.67;27.00;;;;;21.73;34.79;101793.13;4742971;30;45625;-83
2022/04/29 13:05:51;;;;;;;;;30.33;29.00;;;;;21.37;35.27;101768.34;4715648;30;46848;-82